Chicago, Illinois
Traffic Map
Current Weather Conditions
Chicago, Illinois
Overcast
Overcast
53°
Feels Like: 53°
Wind Chill: 53° Ceiling: 2200
Heat Index: 53° Visibility: 10mi
Dew Point: 47° Wind: 13mph
Humidity: 80% Direction: 210° (SSW)
Pressure: 29.87in Gusts: 0mph
Raw Report DataKMDW 230353Z 21011KT 10SM BKN022 OVC037 12/08 A2987 RMK AO2 SLP118 T01170083
Traffic Incident Summary
Active as of:
Severity:
Category:
InformationThere was an issue retrieving the traffic information for this location. Please try a different location or try again shortly.
Advertisements
Track Severe Weather on mobile